Furney Richardson, Texas
Current Conditions -  °F | °C
As of 12:35 AM on Monday 24 Nov 2014 (Local Time) from KLXY Reporting Station
Clear Clear  
Wind Chill: 50°   Ceiling: Unl
Heat Index: 50°   Visibility: 10mi
Dew Point: 39°   Wind: 17mph
Humidity: 66%   Direction: 320°NW
Pressure: 29.83"   Gusts: 23mph
Location:  31.6463°N, 96.2786°W
Report Text: KLXY 240635Z AUTO 32015G20KT 10SM CLR 10/04 A2983 RMK AO2 T01010041
Loading
Personal Weather Stations






























Interactive Weather Map New forecast layout! Learn more

10-Day Weather Forecast

Advertisements
Track Severe Weather on mobile